Portada
METAR-TAF:

METAR-TAF

Aeroports :

Hagåtña, Guam, Estats Units d'Amèrica

latitud: 13-29N, longitud: 144-48E, altitud: 91 m

Observació

L'informe es va fer fa 59 minuts, a les 12:54 UTC
Vent 3 kt del Nord-Est
Temperatura 28°C
Humitat 94%
Pressió 1012 hPa
Visibilitat: 16.1 km
Cel clar

METAR: PGUM 201254Z 05003KT 10SM CLR 28/27 A2988 RMK AO2 SLP109 T02780267

Hora: 23:53 (13:53 UTC)

Pronòstic

L'informe es va fer fa 2 hores i 33 minuts, a les 11:20 UTC
Pronòstic vàlid del 20 a les 12 UTC al 21 a les 18 UTC
Vent 5 kt amb direcció variable
Visibilitat: 10 km
Núvols disperses a una alçada de 2000 ft
Cel ennuvolat a una alçada de 5000 ft
A partir de les 20 a les 2300 UTC
Vent 6 kt amb direcció variable
Visibilitat: 10 km
Núvols disperses a una alçada de 2000 ft
Núvols disperses a una alçada de 4000 ft
xàfecs en les proximitats

TAF: PGUM 201120Z 2012/2118 VRB05KT P6SM SCT020 BKN050 FM202300 VRB06KT P6SM VCSH SCT020 SCT040

Observacions i pronòstics meteorològics de més de 4000 aeroports (METAR i TAF).

Les estacions disponibles són els punts grocs i vermells al mapa.

Posi el ratolí al punt desitjat per veure el nom de l'estació.

Feu clic per veure les observacions i els pronòstics meteorològics.

Per canviar el mapa: feu clic els botons verds amb una creu de color negre per apropar; al botó verd amb un guió per allunyar la imatge; o en les fletxes verdes per a mapes adjacents.


METAR-TAF: